PIERNIKOWY BIEG CHARYTATYWNY DLA KRZYŚKA

Organizator:
Fundacja DUM SPIRO, SPERO z siedzibą w Bydgoszczy
Data:
2018-12-09
Miejsce:
Bydgoszcz
Dystans:
5 km
Zgłoszonych:
254
Wystartowało:
223
Nie ukończyło:
0
Ukończyło:
223
Na trasie:
0
Pełne wyniki :
Wyniki uproszczone:
Wyniki nieoficjalne !!!
Klasyfikacje w punktach pomiarowych: Meta
Klasyfikacje wg kategorii: Wszyscy | K-Open | M-Open

MscZawodnikNumerKlubMiejscowośćKrajKategoriaMkatK/MCzas
netto
5km
Różn.Tempo
min/km
Tempo
km/h
     
1TUCZYŃSKI Sylwester Leon 172BYDGOSKIE OKONIEBYDGOSZCZM-Open1M 100:17:34.60 3:3017.1
2JAGODZIŃSKI Mateusz 57BYDGOSKIE OKONIEBYDGOSZCZM-Open2M 200:17:34.73+00:00:003:3017.1
3DEROŃ Waldemar 281 POMORSKA BRYGADA LOGISTYCZNA BYDGOSZCZBYDGOSZCZM-Open3M 300:17:48.86+00:00:203:3316.8
4LEWANDOWSKI Filip 218BYDGOSZCZM-Open4M 400:19:22.66+00:01:493:5215.5
5NAGORZYSKI Arkadiusz 113BIEGAMWSPIERAMMOTYWUJĘBYDGOSZCZM-Open5M 500:20:07.91+00:02:334:0114.9
6JAGIEŁA Bartosz 56TKKF KOLEJARZ BYDGOSZCZ #BIEGACZEBYDGOSZCZM-Open6M 600:20:13.41+00:02:404:0214.8
7SOBCZAK Rafał 97OSIECINYM-Open7M 700:21:03.11+00:03:284:1214.3
8LUTOWSKI Wojciech 321TKKF KOLEJARZ BYDGOSZCZBYDGOSZCZM-Open8M 800:20:45.54+00:03:304:0914.5
9DROCIAK Michał 34OSOWA GÓRA TEAMBYDGOSZCZM-Open9M 900:21:13.93+00:03:394:1414.1
10PIEKARSKI Paweł 123BYDGOSZCZM-Open10M 1000:21:38.55+00:04:054:1913.9
11MAJDA Adrian 98BYDGOSKIE DZIKIBYDGOSZCZM-Open11M 1100:21:50.54+00:04:214:2213.7
12HEMMERLING Michał 52BYTÓWM-Open12M 1200:21:57.54+00:04:274:2313.7
13KONOPCZYŃSKI Jakub 76BYDGOSZCZM-Open13M 1300:21:43.42+00:04:304:2013.8
14MICHALAK Wojciech 102BYDGOSZCZM-Open14M 1400:22:05.72+00:04:454:2513.6
15KOSIŃSKI Michael 80HARPAGAN TEAM BYDGOSZCZBYDGOSZCZM-Open15M 1500:22:23.41+00:04:494:2813.4
16MIKOŁAJCZAK Tomasz 106BYDGOSZCZM-Open16M 1600:22:20.54+00:04:504:2813.4
17SKONIECZNY Marcin 243FORDON RUNNERSBYDGOSZCZM-Open17M 1700:22:11.99+00:04:574:2613.5
18DROCIAK Jarosław 35BYDGOSZCZM-Open18M 1800:22:38.08+00:05:034:3113.3
19SZAMLEWSKI Paweł 161ŚLESINM-Open19M 1900:22:21.13+00:05:074:2813.4
20BARANOWSKI Roman 236FOREVER TEAMBYDGOSZCZM-Open20M 2000:22:37.79+00:05:094:3113.3
21CIEŚLEWICZ Karol 19OLAFCREWBYDGOSZCZM-Open21M 2100:22:35.23+00:05:104:3113.3
22GŁOWSKI Dariusz 46BYDGOSZCZM-Open22M 2200:22:39.91+00:05:174:3213.2
23NOWACKI Edmund 81PRUSZCZM-Open23M 2300:22:42.04+00:05:244:3213.2
24ŻEGLICZ Marek 201SPÓJNIA BIAŁE BŁOTABIAŁE BŁOTAM-Open24M 2400:22:51.74+00:05:264:3413.1
25SIUDA Sebastian 145SOLECCY BIEGACZEBYDGOSZCZM-Open25M 2500:23:10.68+00:05:454:3812.9
26WELSBERG Bartosz 183BYDGOSZCZM-Open26M 2600:23:18.35+00:05:464:3912.9
27WASIELEWSKI Jacek 180BYDGOSZCZM-Open27M 2700:22:55.92+00:05:474:3513.1
28SZCZYGIELSKI Dawid 162TEAM KULASBYDGOSZCZM-Open28M 2800:22:57.72+00:05:484:3513.1
29ŁOBOCKI Krzysztof 96TKKF KOLEJARZ BYDGOSZCZBYDGOSZCZM-Open29M 2900:23:08.96+00:05:544:3713
30WOJTECKI Łukasz 193SOLECCY BIEGACZESOLEC KUJAWSKIM-Open30M 3000:23:22.09+00:06:084:4012.8
31MRÓWCZYŃSKI Szymon 111ŻNINM-Open31M 3100:23:46.85+00:06:234:4512.6
32BULMAN Kacper 12BYDGOSZCZM-Open32M 3200:23:35.17+00:06:234:4312.7
33SARNECKI Sławomir 142BYDGOSZCZM-Open33M 3300:23:45.97+00:06:244:4512.6
34FIECEK Łukasz 38BYDGOSZCZM-Open34M 3400:23:53.59+00:06:254:4612.6
35KORPAL Emil 79PRONATURA BYDGOSZCZBYDGOSZCZM-Open35M 3500:23:50.38+00:06:304:4612.6
36DĄBROWSKI Arkadiusz 26DĄBRÓWKA NOWAM-Open36M 3600:23:47.87+00:06:394:4512.6
37ORZECHOWSKI Zbigniew 240BYDGOSZCZM-Open37M 3700:23:55.79+00:06:404:4712.5
38WALCZAK Gracjan 178BYDGOSZCZM-Open38M 3800:24:11.27+00:06:424:5012.4
39RADAJEWSKI Roger 130ŚLESINM-Open39M 3900:24:02.73+00:06:484:4812.5
40NOWICKI Olgierd 119BYDGOSZCZM-Open40M 4000:24:11.46+00:06:594:5012.4
41KACZYŃSKI Rafał 65TORUŃM-Open41M 4100:24:27.44+00:07:004:5312.3
42SZYMECZKO Łukasz 168BYDGOSZCZM-Open42M 4200:24:31.03+00:07:094:5412.2
43RUDEWICZ Łukasz 49PAWŁÓWEKM-Open43M 4300:24:28.06+00:07:174:5312.3
44LEWANDOWSKI Adam 208BYDGOSZCZM-Open44M 4400:24:45.99+00:07:224:5712.1
45WASZKIEWICZ Przemysław 181BYDGOSZCZM-Open45M 4500:24:31.29+00:07:234:5412.2
46CZAJA Jarosław 24BYDGOSZCZM-Open46M 4600:24:55.59+00:07:284:5912
47ZUPA Wojciech 200SISU-OWB TEAMBYDGOSZCZM-Open47M 4700:25:00.57+00:07:285:0012
48KWAŚNIEWSKI Waldemar 91MROCZAM-Open48M 4800:24:52.75+00:07:304:5812.1
49CYCKOWSKI Marcin 23BYDGOSZCZM-Open49M 4900:25:03.82+00:07:315:0012
50BUTOWSKI Michał 13SEN O VICTORIBYDGOSZCZM-Open50M 5000:25:09.40+00:07:385:0211.9
51TANDECKI Paweł 170BYDGOSZCZM-Open51M 5100:24:51.92+00:07:434:5812.1
52GRZELAK Tomasz 220BYDGOSZCZM-Open52M 5200:25:11.37+00:07:505:0211.9
53DOMŻALSKI Kamil 32BYDGOSZCZM-Open53M 5300:25:15.73+00:07:505:0311.9
54RUDOL Sebastian 212M-Open54M 5400:25:45.09+00:08:215:0911.7
55KACZMAREK Łukasz 64BYDGOSZCZM-Open55M 5500:25:38.28+00:08:265:0711.7
56FRĄCKOWIAK Waldemar 40BYDGOSZCZM-Open56M 5600:25:46.90+00:08:285:0911.6
57GUŹDZIOŁ Jarek 51WKURW_TEAMSOLEC KUJAWSKIM-Open57M 5700:25:57.18+00:08:315:1111.6
58RENC Patryk 133SERCE TYBETUBYDGOSZCZM-Open58M 5800:26:04.71+00:08:325:1211.5
59SOBCZEK Paweł 70BYDGOSZCZM-Open59M 5900:25:54.05+00:08:445:1011.6
60KLETKIEWICZ Marek 39WŁOCŁAWEKM-Open60M 6000:26:04.03+00:08:465:1211.5
61OJDOWSKI Krzysztof 207KRUSZYNM-Open61M 6100:26:13.57+00:08:515:1411.4
62RACIBORSKI Grzegorz 129TASAK TEAMBYDGOSZCZM-Open62M 6200:26:11.99+00:08:535:1411.5
63KOWAL Michał 82NAKŁO NAD NOTECIĄM-Open63M 6300:26:06.74+00:08:535:1311.5
64ANTCZAK Andrzej 216BYDGOSZCZM-Open64M 6400:26:13.40+00:08:575:1411.4
65STRZĘBAŁA Adrian 157BYDGOSZCZM-Open65M 6500:26:28.33+00:08:595:1711.3
66WOJCIECHOWSKI Jarosląw 5BYDGOSZCZM-Open66M 6600:26:22.00+00:09:025:1611.4
67FRECICHOWSKI Mariusz 234BYDGOSZCZM-Open67M 6700:26:01.01+00:09:045:1211.5
68KOTYL Artur 249BYDGOSZCZM-Open68M 6800:26:18.93+00:09:075:1511.4
69JASINIECKI Wojciech 59BYDGOSZCZM-Open69M 6900:26:25.12+00:09:095:1711.4
70DZIATKOWICZ Radosław 37INOWROCŁAWM-Open70M 7000:26:33.92+00:09:135:1811.3
71ZIMMERMANN Michał 198OSOWA GÓRA TEAMBYDGOSZCZM-Open71M 7100:26:45.33+00:09:225:2111.2
72GRACZYK Przemysław 47BYDGOSZCZM-Open72M 7200:26:42.40+00:09:305:2011.2
73CHROMINSKI Maciej 17BYDGOSZCZM-Open73M 7300:26:54.29+00:09:315:2211.2
74ŁYSAKOWSKI Maciej 246STRZELCE DOLNEM-Open74M 7400:26:50.98+00:09:405:2211.2
75NIEMCZEWSKI Jakub 244ŁABISZYNM-Open75M 7500:27:17.27+00:09:525:2711
76MALINOWSKI Maciej 16BYDGOSZCZM-Open76M 7600:27:44.02+00:10:175:3210.8
77ADAMCZYK Mariusz 1BYDGOSZCZM-Open77M 7700:27:37.45+00:10:215:3110.9
78GRZESZEK Martin 232BYDGOSZCZM-Open78M 7800:27:28.50+00:10:295:2910.9
79ZIRRA Arkadiusz 199BYDGOSZCZM-Open79M 7900:27:52.16+00:10:325:3410.8
80LINKE Robert 248BYDGOSZCZM-Open80M 8000:27:51.11+00:10:325:3410.8
81BROŻYŃSKI Wojciech 10OSÓWIECM-Open81M 8100:27:43.52+00:10:375:3210.8
82CIESIELSKI Adrian 225NAKŁO NAD NOTECIĄM-Open82M 8200:27:59.82+00:10:455:3610.7
83SŁAWIŃSKI Michał 233BYDGOSZCZM-Open83M 8300:27:55.90+00:10:565:3510.7
84MUSIAŁ Piotr 221WOLONTARIUSZ SALUS HOMININAKŁO NAD NOTECIĄM-Open84M 8400:28:11.95+00:10:595:3810.6
85WIOSNA Tomasz 186BIEGAJĄCE ŻÓŁWIE ITBYDGOSZCZM-Open85M 8500:28:19.80+00:11:065:4010.6
86PRZYBYLSKI Mariusz 128BYDGOSZCZ NA STARTBYDGOSZCZM-Open86M 8600:28:33.33+00:11:105:4210.5
87OLKOWSKI Adam 217BYDGOSZCZM-Open87M 8700:28:40.69+00:11:215:4410.5
88NIEMCZEWSKI Mirosław 116NIEŁABISZYNM-Open88M 8800:29:05.50+00:11:425:4910.3
89KIERSKI Maciej 72BYDGOSZCZM-Open89M 8900:29:06.97+00:11:425:4910.3
90SZCZYGIELSKI Leszek 163OL-TRANSBYDGOSZCZM-Open90M 9000:29:05.63+00:11:445:4910.3
91ŁOSIŃSKI Łukasz 228BYDGOSZCZM-Open91M 9100:29:04.78+00:11:455:4910.3
92ONICHIMIUK Robert 73BYDGOSZCZM-Open92M 9200:28:45.30+00:11:455:4510.4
93BEJM Bartosz 250BYDGOSZCZM-Open93M 9300:28:58.78+00:11:465:4710.4
94MIRŻ Piotr 110BYDGOSZCZM-Open94M 9400:29:10.75+00:11:505:5010.3
95MARCHLEWSKI Tomasz 235ZAWISZAZIELONCZYNM-Open95M 9500:28:47.78+00:11:515:4510.4
96RAPKIEWICZ Tomasz 132BYDGOSZCZM-Open96M 9600:29:13.37+00:11:555:5010.3
97KOPROWICZ Adam 78SWIECIEM-Open97M 9700:29:22.96+00:11:565:5210.2
98BYSTRZYŃSKI Jan 14BYDGOSZCZM-Open98M 9800:29:31.81+00:12:035:5410.2
99BADYNIAK Mateusz 4BYDGOSZCZM-Open99M 9900:29:45.93+00:12:175:5710.1
100GACKOWSKI Edward 43BYDGOSZCZ NA STARTMĘŻCZYZNAM-Open100M 10000:29:43.27+00:12:195:5610.1
101DUSZYŃSKI Filip 148M-Open101M 10100:30:04.79+00:12:396:0110
102CISEWSKI Mateusz 20BYDGOSZCZM-Open102M 10200:29:45.71+00:12:495:5710.1
103POLITOWSKI Paweł 126ROWERYBYDGOSZCZ.PLBYDGOSZCZM-Open103M 10300:30:03.64+00:13:116:0010
104SZYMAŃSKI Robert 167BYDGOSZCZM-Open104M 10400:30:52.13+00:13:216:109.7
105ASTUKIEWICZ Tomasz 3BYDGOSZCZM-Open105M 10500:30:37.34+00:13:276:079.8
106KOTLAREK Adam 238MUROWANIECM-Open106M 10600:30:59.07+00:13:276:119.7
107SAWIEŁAJC Michał 144BYDGOSZCZM-Open107M 10700:30:42.64+00:13:286:089.8
108GUMIENNY Maciej 204BYDGOSZCZM-Open108M 10800:31:30.89+00:13:546:189.5
109KOMINIK Mariusz 320BYDGOSZCZM-Open109M 10900:31:10.68+00:13:546:149.6
110SZOPIŃSKI Wojtek 165SEROCKM-Open110M 11000:31:24.62+00:14:196:169.6
111KALINOWSKI Dariusz 67SOLEC KUJAWSKIM-Open111M 11100:32:09.20+00:14:436:259.3
112WESOŁOWSKI Mateusz 214BYDGOSZCZM-Open112M 11200:32:39.32+00:15:186:329.2
113MIROWSKI Tomasz 109BYDGOSZCZM-Open113M 11300:32:45.79+00:15:246:339.2
114LEWANDOWSKI Robert 202BYDGOSZCZM-Open114M 11400:33:42.74+00:16:156:448.9
115DRAŻDŻEWSKI Marian 33RTW BYDGOSTIABYDGOSZCZM-Open115M 11500:33:29.46+00:16:246:429
116KANIA Daniel 68BYDGOSZCZM-Open116M 11600:34:29.46+00:17:146:548.7
117DANIELAK Adam 203BYDGOSZCZM-Open117M 11700:35:22.03+00:18:017:048.5
118ROMPALSKI Tomek 137MROCZAM-Open118M 11800:36:36.06+00:19:107:198.2
119WNUK Artur 192MROCZAM-Open119M 11900:36:37.33+00:19:127:198.2
120WENGLER Sebastian 185BYDGOSZCZM-Open120M 12000:38:15.57+00:20:557:397.8
121WALCZAK Marcin 176BYDGOSZCZM-Open121M 12100:39:58.54+00:22:437:597.5
122KRZYWDZIŃSKI Daniel 86BYDGOSZCZM-Open122M 12200:41:13.85+00:23:538:147.3
123KUBIAK Mariusz 88BYDGOSZCZM-Open123M 12300:44:36.03+00:27:188:556.7
124SŁAWIŃSKI Szymon 247BYDGOSZCZM-Open124M 12400:50:25.42+00:33:3410:056
125POPIELASZ Marcin 29BYDGOSZCZM-Open125M 12500:50:25.83+00:33:3510:055.9
126SKORUPA Krzysztof 146MROCZAM-Open126M 12600:50:28.33+00:33:3510:055.9
Znaleziono 126 wynik(ów)